createdAt,value
2022-10-03T00:00:22.565Z,8.20
2022-10-03T00:03:18.227Z,6.93
2022-10-03T00:06:03.615Z,18.97
2022-10-03T00:09:10.285Z,8.83
2022-10-03T00:11:54.718Z,19.83
2022-10-03T00:15:04.069Z,9.73
2022-10-03T00:17:55.248Z,8.70
2022-10-03T00:20:35.892Z,11.00
2022-10-03T00:23:08.353Z,10.63
2022-10-03T00:25:59.153Z,7.97
2022-10-03T00:28:51.391Z,8.40
2022-10-03T00:31:26.449Z,7.33
2022-10-03T00:34:36.236Z,6.23
2022-10-03T00:37:19.648Z,8.13
2022-10-03T00:40:06.464Z,7.10
2022-10-03T00:43:05.878Z,5.63
2022-10-03T00:45:56.510Z,14.17
2022-10-03T00:48:40.222Z,9.00
2022-10-03T00:51:33.759Z,5.60
2022-10-03T00:54:36.625Z,6.17
2022-10-03T00:57:21.361Z,5.83
2022-10-03T01:00:22.242Z,5.90
2022-10-03T01:02:53.677Z,7.37
2022-10-03T01:05:47.371Z,7.37
2022-10-03T01:08:34.072Z,7.30
2022-10-03T01:11:37.029Z,16.60
2022-10-03T01:14:46.461Z,7.10
2022-10-03T01:17:50.237Z,6.13
2022-10-03T01:20:23.552Z,6.20
2022-10-03T01:23:01.034Z,7.23
2022-10-03T01:25:59.194Z,7.23
2022-10-03T01:29:07.099Z,7.70
2022-10-03T01:32:10.874Z,6.40
2022-10-03T01:35:08.605Z,5.83
2022-10-03T01:37:57.321Z,5.77
2022-10-03T01:40:56.947Z,6.13
2022-10-03T01:43:51.174Z,7.60
2022-10-03T01:46:19.541Z,5.53
2022-10-03T01:49:29.974Z,6.70
2022-10-03T01:52:27.084Z,5.93
2022-10-03T01:55:02.291Z,6.10
2022-10-03T01:58:15.816Z,6.73
2022-10-03T02:01:00.799Z,6.33
2022-10-03T02:03:56.152Z,4.97
2022-10-03T02:06:41.326Z,6.50
2022-10-03T02:09:35.613Z,6.30
2022-10-03T02:12:15.617Z,5.70
2022-10-03T02:15:07.183Z,8.63
2022-10-03T02:17:58.853Z,6.77
2022-10-03T02:20:55.070Z,7.37
2022-10-03T02:23:40.821Z,7.17
2022-10-03T02:26:24.610Z,6.77
2022-10-03T02:29:19.525Z,6.40
2022-10-03T02:31:57.955Z,7.60
2022-10-03T02:34:57.409Z,7.80
2022-10-03T02:37:37.507Z,8.30
2022-10-03T02:40:24.310Z,7.53
2022-10-03T02:43:21.100Z,7.77
2022-10-03T02:46:24.229Z,8.27
2022-10-03T02:49:13.866Z,6.13
2022-10-03T02:52:03.388Z,9.17
2022-10-03T02:54:34.708Z,9.80
2022-10-03T02:57:24.423Z,7.03
2022-10-03T03:00:07.896Z,10.30
2022-10-03T03:02:51.474Z,8.80
2022-10-03T03:06:05.613Z,7.90
2022-10-03T03:08:59.074Z,8.07
2022-10-03T03:11:33.154Z,7.73
2022-10-03T03:14:20.748Z,8.60
2022-10-03T03:17:26.309Z,8.60
2022-10-03T03:19:57.605Z,8.70
2022-10-03T03:22:44.234Z,9.00
2022-10-03T03:25:43.233Z,8.93
2022-10-03T03:28:36.358Z,10.70
2022-10-03T03:31:15.547Z,11.97
2022-10-03T03:34:01.630Z,10.90
2022-10-03T03:36:42.535Z,10.97
2022-10-03T03:39:30.988Z,9.70
2022-10-03T03:42:08.680Z,11.07
2022-10-03T03:44:48.463Z,10.57
2022-10-03T03:47:37.273Z,13.20
2022-10-03T03:50:08.661Z,11.90
2022-10-03T03:52:43.415Z,12.37
2022-10-03T03:55:42.417Z,14.90
2022-10-03T03:58:51.474Z,10.80
2022-10-03T04:01:39.779Z,10.00
2022-10-03T04:04:30.126Z,11.17
2022-10-03T04:07:24.268Z,11.20
2022-10-03T04:10:15.943Z,9.87
2022-10-03T04:13:10.763Z,12.13
2022-10-03T04:16:00.542Z,9.90
2022-10-03T04:19:02.307Z,10.00
2022-10-03T04:21:30.705Z,9.23
2022-10-03T04:24:21.595Z,9.23
2022-10-03T04:27:08.609Z,9.77
2022-10-03T04:30:18.620Z,10.40
2022-10-03T04:33:12.036Z,9.57
2022-10-03T04:36:14.991Z,10.60
2022-10-03T04:39:03.959Z,11.00
2022-10-03T04:42:04.901Z,10.67
2022-10-03T04:44:51.444Z,10.30
2022-10-03T04:47:28.273Z,10.83
2022-10-03T04:50:11.150Z,9.60
2022-10-03T04:52:42.547Z,13.00
2022-10-03T04:55:36.357Z,9.80
2022-10-03T04:58:23.056Z,10.00
2022-10-03T05:01:17.184Z,10.97
2022-10-03T05:04:00.721Z,11.90
2022-10-03T05:06:37.054Z,10.80
2022-10-03T05:09:39.242Z,11.43
2022-10-03T05:12:15.227Z,10.40
2022-10-03T05:15:16.188Z,10.80
2022-10-03T05:17:44.584Z,10.63
2022-10-03T05:20:24.754Z,9.83
2022-10-03T05:23:25.282Z,9.00
2022-10-03T05:26:45.981Z,11.47
2022-10-03T05:29:28.708Z,10.03
2022-10-03T05:32:12.276Z,10.20
2022-10-03T05:35:22.590Z,8.80
2022-10-03T05:38:01.209Z,11.17
2022-10-03T05:40:37.496Z,11.63
2022-10-03T05:43:26.605Z,10.73
2022-10-03T05:46:32.437Z,10.60
2022-10-03T05:49:09.822Z,10.93
2022-10-03T05:51:44.103Z,9.00
2022-10-03T05:54:31.037Z,10.43
2022-10-03T05:57:24.434Z,9.60
2022-10-03T06:00:12.865Z,10.40
2022-10-03T06:03:18.061Z,10.37
2022-10-03T06:06:04.409Z,9.77
2022-10-03T06:08:49.307Z,10.40
2022-10-03T06:11:32.921Z,9.17
2022-10-03T06:14:19.778Z,11.00
2022-10-03T06:17:03.713Z,12.70
2022-10-03T06:19:44.966Z,10.33
2022-10-03T06:22:41.010Z,11.00
2022-10-03T06:25:45.002Z,9.90
2022-10-03T06:28:37.763Z,9.17
2022-10-03T06:31:15.112Z,10.80
2022-10-03T06:34:09.080Z,9.60
2022-10-03T06:36:46.665Z,10.03
2022-10-03T06:39:36.020Z,11.43
2022-10-03T06:42:32.174Z,10.63
2022-10-03T06:45:38.672Z,10.03
2022-10-03T06:48:36.141Z,9.93
2022-10-03T06:51:44.358Z,10.47
2022-10-03T06:54:33.242Z,14.40
2022-10-03T06:57:43.126Z,10.70
2022-10-03T07:00:17.668Z,10.20
2022-10-03T07:03:04.159Z,10.30
2022-10-03T07:06:01.477Z,10.30
2022-10-03T07:09:02.665Z,10.23
2022-10-03T07:11:44.983Z,9.80
2022-10-03T07:14:44.417Z,10.03
2022-10-03T07:17:39.899Z,9.50
2022-10-03T07:20:19.003Z,11.57
2022-10-03T07:23:46.836Z,11.13
2022-10-03T07:26:33.453Z,10.83
2022-10-03T07:29:21.061Z,10.40
2022-10-03T07:31:49.913Z,10.73
2022-10-03T07:34:47.233Z,10.50
2022-10-03T07:38:08.898Z,8.90
2022-10-03T07:41:13.765Z,9.07
2022-10-03T07:44:00.605Z,11.23
2022-10-03T07:47:00.750Z,10.90
2022-10-03T07:49:44.453Z,9.70
2022-10-03T07:52:41.179Z,12.07
2022-10-03T07:55:32.661Z,11.77
2022-10-03T07:58:35.619Z,12.30
2022-10-03T08:01:10.898Z,11.93
2022-10-03T08:03:57.935Z,10.90
2022-10-03T08:06:40.891Z,11.00
2022-10-03T08:09:35.190Z,10.70
2022-10-03T08:12:22.991Z,11.07
2022-10-03T08:15:05.743Z,10.77
2022-10-03T08:18:02.291Z,12.60
2022-10-03T08:21:05.159Z,11.50
2022-10-03T08:23:40.456Z,10.90
2022-10-03T08:26:29.512Z,10.47
2022-10-03T08:29:16.408Z,14.67
2022-10-03T08:32:15.924Z,10.47
2022-10-03T08:35:09.022Z,10.73
2022-10-03T08:37:49.017Z,10.00
2022-10-03T08:40:42.518Z,9.90
2022-10-03T08:43:47.655Z,9.50
2022-10-03T08:46:43.093Z,8.90
2022-10-03T08:49:49.400Z,10.40
2022-10-03T08:52:36.229Z,11.53
2022-10-03T08:55:05.827Z,11.27
2022-10-03T08:58:11.187Z,12.60
2022-10-03T09:01:04.154Z,11.00
2022-10-03T09:04:10.669Z,11.53
2022-10-03T09:07:18.642Z,10.27
2022-10-03T09:10:08.042Z,11.27
2022-10-03T09:13:04.349Z,20.77
2022-10-03T09:16:08.043Z,40.10
2022-10-03T09:19:05.056Z,50.50
2022-10-03T09:21:56.496Z,65.47
2022-10-03T09:24:33.814Z,93.27
2022-10-03T09:27:05.290Z,69.23
2022-10-03T09:29:45.961Z,56.70
2022-10-03T09:32:46.642Z,52.10
2022-10-03T09:35:48.696Z,55.57
2022-10-03T09:38:38.535Z,44.40
2022-10-03T09:41:38.893Z,35.00
2022-10-03T09:44:22.452Z,31.40
2022-10-03T09:47:24.361Z,29.50
2022-10-03T09:50:10.308Z,19.37
2022-10-03T09:53:05.757Z,21.80
2022-10-03T09:56:09.834Z,17.07
2022-10-03T09:59:06.225Z,17.97
2022-10-03T10:02:13.783Z,16.33
2022-10-03T10:05:00.657Z,13.30
2022-10-03T10:08:10.943Z,13.47
2022-10-03T10:11:14.652Z,12.03
2022-10-03T10:14:22.698Z,17.07
2022-10-03T10:17:29.089Z,12.30
2022-10-03T10:20:13.205Z,15.00
2022-10-03T10:23:19.806Z,12.17
2022-10-03T10:26:19.733Z,10.97
2022-10-03T10:29:29.323Z,14.83
2022-10-03T10:32:20.466Z,16.67
2022-10-03T10:35:08.095Z,16.83
2022-10-03T10:38:16.166Z,20.77
2022-10-03T10:40:44.680Z,23.47
2022-10-03T10:43:40.218Z,21.17
2022-10-03T10:46:28.289Z,18.70
2022-10-03T10:49:11.920Z,21.07
2022-10-03T10:52:12.693Z,19.53
2022-10-03T10:54:53.163Z,23.93
2022-10-03T10:57:57.785Z,18.03
2022-10-03T11:00:59.313Z,17.30
2022-10-03T11:04:18.765Z,17.97
2022-10-03T11:07:12.859Z,14.50
2022-10-03T11:10:33.475Z,14.37
2022-10-03T11:13:42.043Z,14.43
2022-10-03T11:16:36.106Z,13.53
2022-10-03T11:19:32.895Z,15.07
2022-10-03T11:22:19.944Z,17.30
2022-10-03T11:25:20.559Z,15.43
2022-10-03T11:28:07.148Z,15.27
2022-10-03T11:30:50.835Z,14.43
2022-10-03T11:33:43.761Z,20.23
2022-10-03T11:36:12.082Z,21.40
2022-10-03T11:38:56.459Z,18.77
2022-10-03T11:41:43.307Z,19.17
2022-10-03T11:44:27.642Z,22.20
2022-10-03T11:47:14.613Z,17.77
2022-10-03T11:50:19.837Z,21.53
2022-10-03T11:52:57.424Z,22.30
2022-10-03T11:55:54.927Z,19.00
2022-10-03T11:58:26.376Z,20.00
2022-10-03T12:01:27.013Z,21.17
2022-10-03T12:04:03.838Z,22.30
2022-10-03T12:07:23.880Z,18.43
2022-10-03T12:10:02.104Z,16.83
2022-10-03T12:12:46.948Z,15.60
2022-10-03T12:15:35.230Z,21.30
2022-10-03T12:18:12.337Z,18.90
2022-10-03T12:20:56.725Z,17.30
2022-10-03T12:24:06.172Z,22.63
2022-10-03T12:26:38.342Z,19.80
2022-10-03T12:29:11.427Z,19.57
2022-10-03T12:32:08.848Z,21.17
2022-10-03T12:34:57.385Z,19.70
2022-10-03T12:37:34.918Z,22.63
2022-10-03T12:40:13.437Z,23.80
2022-10-03T12:43:25.213Z,27.10
2022-10-03T12:46:02.275Z,22.67
2022-10-03T12:48:57.051Z,19.60
2022-10-03T12:51:40.752Z,25.80
2022-10-03T12:54:30.766Z,21.03
2022-10-03T12:57:25.850Z,26.63
2022-10-03T13:00:22.490Z,25.53
2022-10-03T13:03:23.641Z,22.47
2022-10-03T13:05:56.518Z,23.40
2022-10-03T13:08:38.233Z,28.17
2022-10-03T13:11:36.996Z,31.73
2022-10-03T13:14:30.250Z,32.97
2022-10-03T13:17:37.053Z,25.27
2022-10-03T13:20:30.778Z,25.03
2022-10-03T13:23:31.556Z,26.30
2022-10-03T13:26:18.158Z,35.60
2022-10-03T13:28:49.909Z,29.13
2022-10-03T13:31:27.857Z,32.67
2022-10-03T13:34:01.421Z,40.03
2022-10-03T13:37:10.658Z,32.63
2022-10-03T13:40:08.724Z,36.90
2022-10-03T13:42:54.291Z,36.10
2022-10-03T13:45:29.194Z,36.00
2022-10-03T13:48:12.469Z,35.10
2022-10-03T13:50:56.130Z,35.00
2022-10-03T13:53:44.158Z,46.90
2022-10-03T13:56:45.386Z,37.60
2022-10-03T13:59:43.057Z,43.17
2022-10-03T14:02:11.447Z,36.23
2022-10-03T14:04:54.155Z,38.83
2022-10-03T14:07:23.411Z,42.23
2022-10-03T14:10:11.307Z,46.33
2022-10-03T14:12:56.117Z,40.77
2022-10-03T14:15:51.495Z,41.90
2022-10-03T14:18:54.458Z,63.53
2022-10-03T14:21:58.145Z,45.87
2022-10-03T14:24:40.134Z,41.00
2022-10-03T14:27:14.429Z,97.37
2022-10-03T14:30:14.434Z,49.10
2022-10-03T14:33:01.643Z,43.70
2022-10-03T14:35:52.954Z,36.97
2022-10-03T14:39:04.379Z,49.73
2022-10-03T14:41:44.621Z,42.30
2022-10-03T14:44:39.183Z,38.70
2022-10-03T14:47:14.351Z,105.83
2022-10-03T14:49:59.274Z,50.83
2022-10-03T14:52:46.877Z,38.70
2022-10-03T14:55:29.990Z,33.57
2022-10-03T14:58:33.215Z,106.97
2022-10-03T15:01:13.274Z,33.53
2022-10-03T15:04:04.906Z,53.90
2022-10-03T15:06:40.910Z,40.60
2022-10-03T15:09:17.710Z,54.63
2022-10-03T15:11:51.231Z,67.40
2022-10-03T15:14:21.278Z,50.70
2022-10-03T15:16:55.740Z,41.00
2022-10-03T15:19:40.124Z,43.27
2022-10-03T15:22:34.691Z,53.90
2022-10-03T15:25:18.696Z,32.03
2022-10-03T15:27:51.525Z,33.00
2022-10-03T15:30:35.409Z,41.07
2022-10-03T15:33:30.430Z,38.47
2022-10-03T15:36:13.599Z,42.53
2022-10-03T15:38:45.488Z,32.00
2022-10-03T15:41:16.998Z,31.77
2022-10-03T15:43:51.737Z,41.23
2022-10-03T15:47:02.461Z,38.10
2022-10-03T15:50:01.272Z,33.70
2022-10-03T15:52:45.646Z,30.30
2022-10-03T15:55:28.029Z,39.73
2022-10-03T15:58:09.741Z,43.40
2022-10-03T16:00:38.893Z,43.30
2022-10-03T16:03:23.894Z,42.33
2022-10-03T16:06:11.197Z,35.90
2022-10-03T16:08:52.175Z,34.20
2022-10-03T16:11:26.386Z,36.53
2022-10-03T16:14:30.863Z,35.80
2022-10-03T16:17:02.755Z,31.33
2022-10-03T16:19:40.241Z,35.87
2022-10-03T16:22:08.648Z,30.33
2022-10-03T16:24:58.272Z,27.23
2022-10-03T16:27:29.607Z,36.80
2022-10-03T16:30:10.222Z,40.53
2022-10-03T16:32:53.041Z,28.60
2022-10-03T16:35:47.071Z,34.47
2022-10-03T16:38:40.170Z,33.83
2022-10-03T16:41:22.029Z,32.90
2022-10-03T16:44:06.011Z,34.00
2022-10-03T16:46:39.614Z,32.73
2022-10-03T16:49:49.060Z,30.87
2022-10-03T16:52:21.390Z,32.43
2022-10-03T16:54:58.479Z,31.77
2022-10-03T16:57:56.445Z,34.80
2022-10-03T17:00:37.207Z,35.40
2022-10-03T17:03:17.008Z,29.43
2022-10-03T17:05:48.142Z,33.77
2022-10-03T17:08:40.864Z,33.13
2022-10-03T17:11:10.261Z,28.47
2022-10-03T17:13:47.822Z,32.93
2022-10-03T17:16:45.036Z,26.43
2022-10-03T17:19:35.866Z,26.73
2022-10-03T17:22:34.200Z,36.63
2022-10-03T17:25:37.492Z,39.53
2022-10-03T17:28:12.639Z,35.60
2022-10-03T17:30:52.496Z,33.63
2022-10-03T17:33:47.378Z,38.90
2022-10-03T17:36:41.087Z,35.23
2022-10-03T17:39:39.032Z,34.80
2022-10-03T17:42:42.912Z,33.03
2022-10-03T17:45:34.570Z,29.10
2022-10-03T17:48:23.906Z,32.80
2022-10-03T17:51:21.293Z,27.10
2022-10-03T17:53:57.493Z,27.53
2022-10-03T17:56:30.507Z,26.87
2022-10-03T17:59:13.346Z,25.93
2022-10-03T18:01:46.144Z,26.90
2022-10-03T18:04:29.814Z,28.00
2022-10-03T18:07:20.480Z,27.20
2022-10-03T18:09:51.129Z,24.53
2022-10-03T18:12:39.324Z,20.83
2022-10-03T18:15:23.769Z,24.97
2022-10-03T18:18:15.121Z,20.57
2022-10-03T18:20:52.028Z,26.17
2022-10-03T18:23:53.127Z,22.83
2022-10-03T18:26:35.080Z,21.00
2022-10-03T18:29:24.521Z,21.60
2022-10-03T18:32:26.065Z,25.33
2022-10-03T18:35:16.103Z,21.10
2022-10-03T18:37:47.153Z,22.57
2022-10-03T18:40:21.952Z,22.43
2022-10-03T18:42:51.105Z,22.13
2022-10-03T18:45:24.946Z,25.13
2022-10-03T18:47:57.099Z,20.27
2022-10-03T18:51:06.211Z,22.23
2022-10-03T18:53:38.293Z,22.30
2022-10-03T18:56:18.681Z,21.73
2022-10-03T18:59:14.868Z,18.00
2022-10-03T19:01:55.424Z,22.60
2022-10-03T19:04:29.812Z,20.27
2022-10-03T19:06:59.769Z,20.47
2022-10-03T19:09:39.771Z,18.63
2022-10-03T19:12:25.410Z,23.33
2022-10-03T19:15:19.899Z,19.00
2022-10-03T19:18:06.827Z,20.10
2022-10-03T19:20:47.650Z,16.20
2022-10-03T19:23:28.992Z,18.73
2022-10-03T19:26:01.692Z,16.27
2022-10-03T19:28:49.634Z,18.00
2022-10-03T19:31:34.624Z,15.97
2022-10-03T19:34:26.464Z,19.77
2022-10-03T19:36:58.315Z,18.70
2022-10-03T19:39:29.700Z,16.87
2022-10-03T19:42:19.378Z,17.27
2022-10-03T19:44:47.894Z,14.13
2022-10-03T19:47:24.811Z,13.93
2022-10-03T19:50:02.396Z,15.90
2022-10-03T19:52:33.449Z,12.93
2022-10-03T19:55:03.589Z,13.23
2022-10-03T19:57:43.520Z,12.83
2022-10-03T20:00:21.047Z,14.30
2022-10-03T20:03:07.305Z,15.20
2022-10-03T20:05:55.845Z,12.53
2022-10-03T20:08:46.825Z,13.60
2022-10-03T20:11:21.105Z,18.13
2022-10-03T20:13:51.257Z,12.80
2022-10-03T20:16:25.683Z,14.50
2022-10-03T20:18:59.293Z,16.37
2022-10-03T20:21:29.886Z,12.80
2022-10-03T20:23:59.443Z,14.00
2022-10-03T20:26:37.373Z,15.47
2022-10-03T20:29:27.443Z,13.30
2022-10-03T20:32:06.474Z,15.43
2022-10-03T20:34:37.709Z,13.97
2022-10-03T20:37:36.594Z,14.37
2022-10-03T20:40:31.885Z,14.50
2022-10-03T20:43:28.554Z,15.77
2022-10-03T20:46:06.146Z,14.17
2022-10-03T20:48:38.707Z,16.07
2022-10-03T20:51:07.276Z,12.40
2022-10-03T20:53:35.706Z,16.57
2022-10-03T20:56:16.027Z,14.03
2022-10-03T20:58:52.561Z,16.47
2022-10-03T21:01:26.459Z,16.40
2022-10-03T21:04:17.051Z,23.40
2022-10-03T21:07:05.301Z,22.60
2022-10-03T21:10:38.497Z,21.47
2022-10-03T21:13:15.237Z,20.97
2022-10-03T21:15:58.550Z,32.30
2022-10-03T21:18:26.949Z,26.40
2022-10-03T21:21:23.100Z,27.57
2022-10-03T21:23:57.098Z,25.80
2022-10-03T21:26:42.313Z,35.53
2022-10-03T21:29:29.611Z,24.40
2022-10-03T21:32:28.893Z,21.30
2022-10-03T21:35:15.788Z,22.67
2022-10-03T21:37:51.917Z,20.60
2022-10-03T21:40:36.923Z,23.83
2022-10-03T21:43:23.205Z,23.57
2022-10-03T21:45:54.976Z,23.10
2022-10-03T21:48:29.483Z,20.03
2022-10-03T21:51:13.228Z,23.07
2022-10-03T21:54:34.705Z,26.00
2022-10-03T21:57:36.921Z,19.93
2022-10-03T22:00:26.491Z,23.53
2022-10-03T22:03:00.403Z,20.30
2022-10-03T22:05:28.731Z,21.10
2022-10-03T22:07:57.695Z,25.63
2022-10-03T22:10:37.142Z,20.50
2022-10-03T22:13:10.643Z,21.87
2022-10-03T22:15:56.776Z,23.33
2022-10-03T22:18:26.703Z,20.93
2022-10-03T22:21:05.685Z,19.77
2022-10-03T22:23:39.432Z,23.50
2022-10-03T22:26:19.352Z,24.03
2022-10-03T22:29:20.665Z,22.83
2022-10-03T22:32:07.877Z,20.60
2022-10-03T22:34:53.090Z,18.93
2022-10-03T22:37:22.387Z,17.77
2022-10-03T22:39:51.877Z,18.17
2022-10-03T22:42:21.347Z,16.77
2022-10-03T22:44:52.473Z,20.73
2022-10-03T22:47:27.405Z,17.47
2022-10-03T22:50:01.698Z,17.63
2022-10-03T22:52:36.883Z,17.23
2022-10-03T22:55:09.628Z,17.60
2022-10-03T22:57:40.308Z,17.97
2022-10-03T23:00:30.653Z,17.63
2022-10-03T23:03:20.674Z,14.40
2022-10-03T23:06:13.344Z,21.13
2022-10-03T23:08:44.698Z,13.30
2022-10-03T23:11:29.034Z,15.63
2022-10-03T23:14:02.218Z,13.50
2022-10-03T23:16:48.891Z,13.40
2022-10-03T23:19:50.014Z,15.23
2022-10-03T23:22:25.177Z,14.30
2022-10-03T23:25:07.494Z,20.20
2022-10-03T23:27:56.560Z,14.23
2022-10-03T23:30:29.785Z,14.83
2022-10-03T23:33:01.743Z,13.73
2022-10-03T23:35:32.927Z,16.10
2022-10-03T23:38:02.700Z,14.23
2022-10-03T23:40:43.756Z,13.00
2022-10-03T23:43:40.452Z,18.17
2022-10-03T23:46:21.156Z,18.83
2022-10-03T23:48:54.498Z,12.93
2022-10-03T23:51:32.855Z,15.53
2022-10-03T23:54:05.123Z,17.87
2022-10-03T23:56:35.702Z,15.27
2022-10-03T23:59:04.039Z,15.00
